Main page
METAR-TAF:

METAR-TAF

Airports :

Canoas Air Force Base

Porto Alegre, Rio Grande do Sul, Brazil

latitude: 30-01S, longitude: 051-13W, elevation: 47 m

Current weather observation

The report was made 1 hour and 12 minutes ago, at 23:00 UTC
Wind 4 kt from the South
Temperature 14°C
Humidity 77%
Pressure 1021 hPa
Visibility 10 km or more
Broken clouds at a height of 4000 ft

METAR: SBCO 242300Z 19004KT 9999 BKN040 14/10 Q1021

Time: 21:12 (00:12 UTC)

Forecast

The report was made 15 hours and 12 minutes ago, at 09:00 UTC
Forecast valid from 24 at 12 UTC to 24 at 24 UTC
Wind 10 kt from the South/Southeast
Visibility: 9000 m
Broken clouds at a height of 1600 ft
Becoming
from 24 at 13 UTC to 24 at 15 UTC
Visibility 10 km or more
Broken clouds at a height of 3000 ft

TAF: SBCO 240900Z 2412/2424 16010KT 9000 BKN016 TX15/2418Z TN11/2423Z BECMG 2413/2415 9999 BKN030 RMK PFP

Weather observations and forecasts of more than 4000 airports (METAR and TAF reports).

The available stations are represented by yellow and red dots on the map.

Hover mouse over dot to see the name of the station.

Then click to see weather observations and forecasts.

To change the map : click on the green buttons with a black cross to zoom in, on the green button with a dash to zoom out, or on the green arrows for adjacent maps.


METAR-TAF: